Time;durP1;ratioP1;P1;durP2;ratioP2;P2;SDS_P1;SDS_P2;PMS_P1;PMS_P2;Temp;Humidity;BMP_temperature;BMP_pressure;BME280_temperature;BME280_humidity;BME280_pressure;Samples;Min_cycle;Max_cycle;Signal;HPM_P1;HPM_P2
2022/02/18 00:00:45;;;;;;;17.45;2.72;;;;;;;;;;5024465;28;20709;-68
2022/02/18 00:03:13;;;;;;;18.45;2.40;;;;;;;;;;5009390;28;20046;-68
2022/02/18 00:05:39;;;;;;;19.33;2.75;;;;;;;;;;5020322;28;20057;-68
2022/02/18 00:08:06;;;;;;;16.08;2.92;;;;;;;;;;5021050;28;20056;-68
2022/02/18 00:10:33;;;;;;;20.58;2.60;;;;;;;;;;5015092;28;20049;-68
2022/02/18 00:12:59;;;;;;;17.25;2.42;;;;;;;;;;5024170;28;20049;-68
2022/02/18 00:15:25;;;;;;;16.80;2.95;;;;;;;;;;5013809;28;20588;-68
2022/02/18 00:17:52;;;;;;;17.75;2.30;;;;;;;;;;5017736;28;20509;-68
2022/02/18 00:20:18;;;;;;;20.85;3.35;;;;;;;;;;5009794;28;20041;-68
2022/02/18 00:22:44;;;;;;;15.70;2.35;;;;;;;;;;5022273;28;20053;-68
2022/02/18 00:25:11;;;;;;;23.58;3.35;;;;;;;;;;5022853;28;20060;-68
2022/02/18 00:27:38;;;;;;;20.73;2.72;;;;;;;;;;5011591;28;20536;-68
2022/02/18 00:30:06;;;;;;;13.00;2.67;;;;;;;;;;5019378;28;20061;-68
2022/02/18 00:32:32;;;;;;;16.25;2.85;;;;;;;;;;5008151;28;20045;-69
2022/02/18 00:34:59;;;;;;;17.58;3.28;;;;;;;;;;5020701;28;20521;-68
2022/02/18 00:37:25;;;;;;;13.02;2.97;;;;;;;;;;5006711;28;20049;-69
2022/02/18 00:39:51;;;;;;;20.60;3.97;;;;;;;;;;5023192;28;20373;-68
2022/02/18 00:42:18;;;;;;;19.48;3.38;;;;;;;;;;5022544;28;20054;-68
2022/02/18 00:44:44;;;;;;;19.55;3.15;;;;;;;;;;5011073;28;20053;-68
2022/02/18 00:47:10;;;;;;;18.42;2.83;;;;;;;;;;5016442;28;20050;-68
2022/02/18 00:49:38;;;;;;;11.55;2.55;;;;;;;;;;5014514;28;20434;-69
2022/02/18 00:52:04;;;;;;;20.55;2.70;;;;;;;;;;5021968;28;20454;-68
2022/02/18 00:54:31;;;;;;;18.80;2.55;;;;;;;;;;5016635;28;20661;-68
2022/02/18 00:56:57;;;;;;;13.20;2.50;;;;;;;;;;5018389;28;20049;-68
2022/02/18 00:59:24;;;;;;;17.58;2.78;;;;;;;;;;5016476;28;20057;-68
2022/02/18 01:01:50;;;;;;;16.80;2.75;;;;;;;;;;5008307;28;20387;-68
2022/02/18 01:04:17;;;;;;;20.10;2.70;;;;;;;;;;5020462;28;20045;-68
2022/02/18 01:06:44;;;;;;;18.10;2.78;;;;;;;;;;5016630;28;20060;-68
2022/02/18 01:09:10;;;;;;;17.65;2.75;;;;;;;;;;5030924;28;20049;-68
2022/02/18 01:11:37;;;;;;;13.85;2.33;;;;;;;;;;5003055;28;20069;-68
2022/02/18 01:14:04;;;;;;;22.45;3.13;;;;;;;;;;5021167;28;20418;-68
2022/02/18 01:16:31;;;;;;;18.48;2.83;;;;;;;;;;5036915;28;20083;-69
2022/02/18 01:18:58;;;;;;;16.27;2.70;;;;;;;;;;5021809;28;20049;-68
2022/02/18 01:21:25;;;;;;;23.05;3.85;;;;;;;;;;5028337;28;20057;-68
2022/02/18 01:23:51;;;;;;;14.73;2.40;;;;;;;;;;5021362;28;20045;-68
2022/02/18 01:26:18;;;;;;;14.93;3.20;;;;;;;;;;5025425;28;20071;-69
2022/02/18 01:28:44;;;;;;;21.38;3.22;;;;;;;;;;5018062;28;20048;-68
2022/02/18 01:31:11;;;;;;;14.73;2.47;;;;;;;;;;5024825;28;20050;-68
2022/02/18 01:33:37;;;;;;;17.92;3.22;;;;;;;;;;5027103;28;20054;-68
2022/02/18 01:36:03;;;;;;;16.88;3.10;;;;;;;;;;5002512;28;20056;-68
2022/02/18 01:38:30;;;;;;;14.40;2.50;;;;;;;;;;5021548;28;20447;-68
2022/02/18 01:40:56;;;;;;;20.55;3.47;;;;;;;;;;5019096;28;20049;-67
2022/02/18 01:43:23;;;;;;;16.60;2.65;;;;;;;;;;5018455;28;20057;-68
2022/02/18 01:45:49;;;;;;;15.98;2.80;;;;;;;;;;5026875;28;20063;-68
2022/02/18 01:48:15;;;;;;;13.55;2.42;;;;;;;;;;5019656;28;20160;-68
2022/02/18 01:50:42;;;;;;;15.10;2.55;;;;;;;;;;5026129;28;20046;-68
2022/02/18 01:53:11;;;;;;;15.02;2.50;;;;;;;;;;5016912;28;20419;-68
2022/02/18 01:55:38;;;;;;;15.82;2.33;;;;;;;;;;5016802;28;20060;-68
2022/02/18 01:58:04;;;;;;;24.10;3.42;;;;;;;;;;5018531;28;20494;-68
2022/02/18 02:00:31;;;;;;;19.05;2.50;;;;;;;;;;5026694;28;20064;-68
2022/02/18 02:02:58;;;;;;;14.13;2.83;;;;;;;;;;5025383;28;20046;-68
2022/02/18 02:05:25;;;;;;;17.48;2.40;;;;;;;;;;5019323;28;20049;-68
2022/02/18 02:07:51;;;;;;;15.52;3.35;;;;;;;;;;5007445;28;20139;-68
2022/02/18 02:10:19;;;;;;;18.33;2.35;;;;;;;;;;5012549;28;20136;-69
2022/02/18 02:12:50;;;;;;;16.00;2.88;;;;;;;;;;5025184;28;20087;-68
2022/02/18 02:15:18;;;;;;;13.38;2.65;;;;;;;;;;5020048;28;20037;-69
2022/02/18 02:17:45;;;;;;;16.03;2.97;;;;;;;;;;5024540;28;20548;-68
2022/02/18 02:20:11;;;;;;;14.95;2.47;;;;;;;;;;5026275;28;20049;-68
2022/02/18 02:22:41;;;;;;;18.98;3.13;;;;;;;;;;5013868;28;20052;-68
2022/02/18 02:25:07;;;;;;;16.60;2.75;;;;;;;;;;5020674;28;20057;-68
2022/02/18 02:27:34;;;;;;;12.93;2.13;;;;;;;;;;5015828;28;20116;-69
2022/02/18 02:30:02;;;;;;;15.73;2.78;;;;;;;;;;5013778;28;20074;-69
2022/02/18 02:32:28;;;;;;;15.85;2.90;;;;;;;;;;5019161;28;20046;-69
2022/02/18 02:34:54;;;;;;;14.52;2.83;;;;;;;;;;5040737;28;20053;-69
2022/02/18 02:37:22;;;;;;;17.77;3.17;;;;;;;;;;5020182;28;20053;-70
2022/02/18 02:39:49;;;;;;;26.42;3.70;;;;;;;;;;5017040;28;20045;-69
2022/02/18 02:42:15;;;;;;;20.77;3.47;;;;;;;;;;5020730;28;20083;-68
2022/02/18 02:44:43;;;;;;;;;;;;;;;;;;5014240;28;20057;-67
2022/02/18 02:47:10;;;;;;;14.68;2.90;;;;;;;;;;5025428;28;19941;-68
2022/02/18 02:49:36;;;;;;;15.25;3.90;;;;;;;;;;5012470;28;20665;-68
2022/02/18 02:52:02;;;;;;;17.73;3.90;;;;;;;;;;5021377;28;20505;-69
2022/02/18 02:54:29;;;;;;;20.17;4.13;;;;;;;;;;5024197;28;20425;-68
2022/02/18 02:56:56;;;;;;;21.88;3.42;;;;;;;;;;5017098;28;20057;-67
2022/02/18 02:59:23;;;;;;;15.23;3.75;;;;;;;;;;5015758;28;20049;-67
2022/02/18 03:01:51;;;;;;;15.18;4.20;;;;;;;;;;5015723;28;20480;-67
2022/02/18 03:04:19;;;;;;;18.42;4.05;;;;;;;;;;5020602;28;20050;-67
2022/02/18 03:06:46;;;;;;;24.13;4.38;;;;;;;;;;5015009;28;20550;-68
2022/02/18 03:09:31;;;;;;;15.88;3.28;;;;;;;;;;5019650;28;20060;-67
2022/02/18 03:11:58;;;;;;;20.80;4.13;;;;;;;;;;5014361;28;20042;-67
2022/02/18 03:14:25;;;;;;;22.63;4.20;;;;;;;;;;5024583;28;20045;-67
2022/02/18 03:16:52;;;;;;;24.23;3.90;;;;;;;;;;5022063;28;20107;-67
2022/02/18 03:19:18;;;;;;;20.13;4.03;;;;;;;;;;5013394;28;20414;-67
2022/02/18 03:21:44;;;;;;;19.48;3.55;;;;;;;;;;5024206;28;20053;-67
2022/02/18 03:24:10;;;;;;;22.02;4.25;;;;;;;;;;5016666;28;20057;-68
2022/02/18 03:26:37;;;;;;;18.63;3.85;;;;;;;;;;5024745;28;20052;-67
2022/02/18 03:29:03;;;;;;;20.00;3.72;;;;;;;;;;5017089;28;20469;-67
2022/02/18 03:31:29;;;;;;;23.50;3.63;;;;;;;;;;5019915;28;20057;-67
2022/02/18 03:33:56;;;;;;;20.48;4.32;;;;;;;;;;5000726;28;20050;-67
2022/02/18 03:36:22;;;;;;;21.88;3.85;;;;;;;;;;5018215;28;20418;-67
2022/02/18 03:38:49;;;;;;;13.20;3.03;;;;;;;;;;5024763;28;20049;-67
2022/02/18 03:41:15;;;;;;;18.27;3.47;;;;;;;;;;5017589;28;20053;-67
2022/02/18 03:43:41;;;;;;;21.38;3.50;;;;;;;;;;5017269;28;20049;-67
2022/02/18 03:46:08;;;;;;;17.83;3.17;;;;;;;;;;5012718;28;20046;-67
2022/02/18 03:48:34;;;;;;;19.17;2.67;;;;;;;;;;5025261;28;20061;-67
2022/02/18 03:51:00;;;;;;;19.50;3.28;;;;;;;;;;5025039;28;20061;-67
2022/02/18 03:53:27;;;;;;;24.00;3.03;;;;;;;;;;5018374;28;20494;-67
2022/02/18 03:55:54;;;;;;;23.27;3.88;;;;;;;;;;5022933;28;20053;-67
2022/02/18 03:58:21;;;;;;;23.95;3.38;;;;;;;;;;5012386;28;20060;-66
2022/02/18 04:00:47;;;;;;;20.88;3.47;;;;;;;;;;5034767;28;20046;-67
2022/02/18 04:03:13;;;;;;;30.48;4.45;;;;;;;;;;5014544;28;20084;-67
2022/02/18 04:05:39;;;;;;;26.73;3.78;;;;;;;;;;5022971;28;20065;-67
2022/02/18 04:08:06;;;;;;;21.88;3.00;;;;;;;;;;5024341;28;20050;-67
2022/02/18 04:10:32;;;;;;;19.38;3.92;;;;;;;;;;5018822;28;20072;-67
2022/02/18 04:12:58;;;;;;;22.38;4.68;;;;;;;;;;5019743;28;20045;-67
2022/02/18 04:15:25;;;;;;;19.90;3.40;;;;;;;;;;5010494;28;20076;-67
2022/02/18 04:17:51;;;;;;;31.90;4.00;;;;;;;;;;5023147;28;20060;-67
2022/02/18 04:20:17;;;;;;;23.63;4.03;;;;;;;;;;5020839;28;21179;-67
2022/02/18 04:23:03;;;;;;;25.65;3.45;;;;;;;;;;5027772;28;20045;-67
2022/02/18 04:25:30;;;;;;;19.38;3.28;;;;;;;;;;5028001;28;20418;-67
2022/02/18 04:27:58;;;;;;;22.05;3.10;;;;;;;;;;5016470;28;20060;-67
2022/02/18 04:30:24;;;;;;;15.50;3.10;;;;;;;;;;5025331;28;20061;-67
2022/02/18 04:32:51;;;;;;;21.92;3.75;;;;;;;;;;5018188;28;20291;-67
2022/02/18 04:35:18;;;;;;;24.55;4.10;;;;;;;;;;5041756;28;20442;-67
2022/02/18 04:37:44;;;;;;;21.67;3.35;;;;;;;;;;5021508;28;20803;-67
2022/02/18 04:40:12;;;;;;;21.05;3.30;;;;;;;;;;5023856;28;20487;-67
2022/02/18 04:42:39;;;;;;;21.38;3.55;;;;;;;;;;5019834;28;20099;-68
2022/02/18 04:45:06;;;;;;;25.50;3.38;;;;;;;;;;5017950;28;20045;-67
2022/02/18 04:47:32;;;;;;;24.08;3.60;;;;;;;;;;5025949;28;20234;-67
2022/02/18 04:49:58;;;;;;;21.35;3.45;;;;;;;;;;5021873;28;20167;-67
2022/02/18 04:52:25;;;;;;;29.05;4.13;;;;;;;;;;5027381;28;20060;-67
2022/02/18 04:54:53;;;;;;;21.77;3.70;;;;;;;;;;5016573;28;20098;-67
2022/02/18 04:57:19;;;;;;;25.02;3.53;;;;;;;;;;5022050;28;20052;-68
2022/02/18 04:59:46;;;;;;;22.38;3.47;;;;;;;;;;5025697;28;20542;-67
2022/02/18 05:02:14;;;;;;;19.83;2.92;;;;;;;;;;5019970;28;20508;-67
2022/02/18 05:04:40;;;;;;;17.50;3.40;;;;;;;;;;5026971;28;20492;-67
2022/02/18 05:07:06;;;;;;;23.63;3.55;;;;;;;;;;5020899;28;20044;-67
2022/02/18 05:09:33;;;;;;;23.20;4.47;;;;;;;;;;5025620;28;20059;-67
2022/02/18 05:11:59;;;;;;;22.77;3.25;;;;;;;;;;5019915;28;20434;-67
2022/02/18 05:14:26;;;;;;;26.27;3.33;;;;;;;;;;5027156;28;21212;-67
2022/02/18 05:16:52;;;;;;;28.67;3.47;;;;;;;;;;5026800;28;20057;-67
2022/02/18 05:19:19;;;;;;;26.58;3.90;;;;;;;;;;5020658;28;20045;-68
2022/02/18 05:21:45;;;;;;;26.35;3.60;;;;;;;;;;5020559;28;20053;-67
2022/02/18 05:24:11;;;;;;;26.00;3.63;;;;;;;;;;5013619;28;20056;-67
2022/02/18 05:26:42;;;;;;;25.40;3.35;;;;;;;;;;5025932;28;20119;-67
2022/02/18 05:29:08;;;;;;;26.95;4.03;;;;;;;;;;5016075;28;20533;-68
2022/02/18 05:31:35;;;;;;;20.17;3.13;;;;;;;;;;5024287;28;20056;-68
2022/02/18 05:34:01;;;;;;;23.25;4.10;;;;;;;;;;5023096;28;20231;-68
2022/02/18 05:36:28;;;;;;;23.30;3.60;;;;;;;;;;5021307;28;20099;-68
2022/02/18 05:38:54;;;;;;;18.95;3.60;;;;;;;;;;5020649;28;20057;-68
2022/02/18 05:41:23;;;;;;;24.30;3.45;;;;;;;;;;5018731;28;20060;-68
2022/02/18 05:43:50;;;;;;;24.60;3.60;;;;;;;;;;5042219;28;20060;-68
2022/02/18 05:46:16;;;;;;;30.92;5.13;;;;;;;;;;5020896;28;20053;-68
2022/02/18 05:48:42;;;;;;;25.75;4.38;;;;;;;;;;5021521;28;20450;-68
2022/02/18 05:51:09;;;;;;;34.47;4.88;;;;;;;;;;5002031;28;20155;-68
2022/02/18 05:53:36;;;;;;;23.15;3.72;;;;;;;;;;5016398;28;20423;-68
2022/02/18 05:56:02;;;;;;;20.65;3.53;;;;;;;;;;5023248;28;20042;-68
2022/02/18 05:58:28;;;;;;;25.67;4.25;;;;;;;;;;5020138;28;20056;-68
2022/02/18 06:00:55;;;;;;;22.88;4.28;;;;;;;;;;5018688;28;20053;-68
2022/02/18 06:03:21;;;;;;;25.90;4.40;;;;;;;;;;5008962;28;20426;-68
2022/02/18 06:05:48;;;;;;;24.85;3.90;;;;;;;;;;5006453;28;20051;-68
2022/02/18 06:08:14;;;;;;;21.55;3.55;;;;;;;;;;5018956;28;20049;-68
2022/02/18 06:10:40;;;;;;;30.15;4.10;;;;;;;;;;5003865;28;20041;-68
2022/02/18 06:13:07;;;;;;;22.73;4.57;;;;;;;;;;5026247;28;20045;-68
2022/02/18 06:15:33;;;;;;;21.42;4.18;;;;;;;;;;5017359;28;20064;-68
2022/02/18 06:17:59;;;;;;;26.15;3.83;;;;;;;;;;5022066;28;20403;-68
2022/02/18 06:20:25;;;;;;;26.20;4.10;;;;;;;;;;5015006;28;20391;-68
2022/02/18 06:22:52;;;;;;;20.02;4.22;;;;;;;;;;5014800;28;20049;-68
2022/02/18 06:25:18;;;;;;;28.88;4.15;;;;;;;;;;5019724;28;20049;-68
2022/02/18 06:27:44;;;;;;;18.67;3.30;;;;;;;;;;5001233;28;20537;-68
2022/02/18 06:30:11;;;;;;;18.13;3.42;;;;;;;;;;5020563;28;20056;-68
2022/02/18 06:32:37;;;;;;;25.95;4.60;;;;;;;;;;4998810;28;20174;-68
2022/02/18 06:35:04;;;;;;;27.33;4.90;;;;;;;;;;5015546;28;20057;-68
2022/02/18 06:37:31;;;;;;;26.70;3.58;;;;;;;;;;5007817;28;20084;-67
2022/02/18 06:39:57;;;;;;;18.98;3.13;;;;;;;;;;5017707;28;20493;-67
2022/02/18 06:42:23;;;;;;;18.52;3.25;;;;;;;;;;5026023;28;20472;-67
2022/02/18 06:44:50;;;;;;;21.70;3.20;;;;;;;;;;5013991;28;20295;-67
2022/02/18 06:47:16;;;;;;;20.23;2.90;;;;;;;;;;5019597;28;20064;-67
2022/02/18 06:49:44;;;;;;;19.58;3.25;;;;;;;;;;5014489;28;20059;-67
2022/02/18 06:52:11;;;;;;;21.00;3.10;;;;;;;;;;5017442;28;20046;-67
2022/02/18 06:54:37;;;;;;;20.67;4.00;;;;;;;;;;5005260;28;20421;-67
2022/02/18 06:57:05;;;;;;;18.02;2.90;;;;;;;;;;5014016;28;20416;-67
2022/02/18 06:59:31;;;;;;;22.23;2.83;;;;;;;;;;5010948;28;20045;-68
2022/02/18 07:01:57;;;;;;;23.02;2.97;;;;;;;;;;5008462;28;20056;-67
2022/02/18 07:04:24;;;;;;;19.00;2.80;;;;;;;;;;5022867;28;20045;-67
2022/02/18 07:06:51;;;;;;;27.98;3.80;;;;;;;;;;5018075;28;20128;-67
2022/02/18 07:09:17;;;;;;;19.02;2.70;;;;;;;;;;5025374;28;20419;-67
2022/02/18 07:11:44;;;;;;;20.80;3.17;;;;;;;;;;5011823;28;20045;-67
2022/02/18 07:14:11;;;;;;;27.15;3.42;;;;;;;;;;5016694;28;20033;-68
2022/02/18 07:16:41;;;;;;;19.35;3.30;;;;;;;;;;5019556;28;20513;-66
2022/02/18 07:19:09;;;;;;;22.38;3.28;;;;;;;;;;5016251;28;20057;-67
2022/02/18 07:21:36;;;;;;;16.45;3.10;;;;;;;;;;5020763;28;20049;-67
2022/02/18 07:24:04;;;;;;;18.08;3.13;;;;;;;;;;5001320;28;20050;-67
2022/02/18 07:26:30;;;;;;;18.98;3.50;;;;;;;;;;5014244;28;20057;-67
2022/02/18 07:28:57;;;;;;;16.35;2.78;;;;;;;;;;4997375;28;20565;-67
2022/02/18 07:31:23;;;;;;;22.52;3.40;;;;;;;;;;5020351;28;20529;-67
2022/02/18 07:33:49;;;;;;;16.42;3.60;;;;;;;;;;5022215;28;20045;-67
2022/02/18 07:36:16;;;;;;;22.40;3.50;;;;;;;;;;5018679;28;20080;-67
2022/02/18 07:38:42;;;;;;;14.65;2.70;;;;;;;;;;5023660;28;20457;-67
2022/02/18 07:41:08;;;;;;;18.85;4.00;;;;;;;;;;5008978;28;20680;-68
2022/02/18 07:43:35;;;;;;;14.38;2.85;;;;;;;;;;5020020;28;20422;-67
2022/02/18 07:46:06;;;;;;;14.68;3.00;;;;;;;;;;5016878;28;20068;-68
2022/02/18 07:48:33;;;;;;;15.02;2.88;;;;;;;;;;5025006;28;20057;-68
2022/02/18 07:50:59;;;;;;;16.67;3.42;;;;;;;;;;5024780;28;20050;-67
2022/02/18 07:53:25;;;;;;;10.20;2.97;;;;;;;;;;5023105;28;20056;-67
2022/02/18 07:55:52;;;;;;;16.67;3.20;;;;;;;;;;5022048;28;20053;-67
2022/02/18 07:58:19;;;;;;;15.40;3.45;;;;;;;;;;5012899;28;20051;-68
2022/02/18 08:00:45;;;;;;;15.05;3.10;;;;;;;;;;5019345;28;20048;-68
2022/02/18 08:03:12;;;;;;;9.60;2.75;;;;;;;;;;5012363;28;20064;-68
2022/02/18 08:05:38;;;;;;;18.48;3.67;;;;;;;;;;5021475;28;20045;-67
2022/02/18 08:08:04;;;;;;;12.70;3.22;;;;;;;;;;5006447;28;20411;-69
2022/02/18 08:10:32;;;;;;;17.85;3.38;;;;;;;;;;5012739;28;20051;-67
2022/02/18 08:12:58;;;;;;;22.63;3.50;;;;;;;;;;5013068;28;20045;-68
2022/02/18 08:15:24;;;;;;;17.90;3.63;;;;;;;;;;5012669;28;20495;-68
2022/02/18 08:17:51;;;;;;;17.40;2.78;;;;;;;;;;5021437;28;20045;-67
2022/02/18 08:20:18;;;;;;;17.40;3.17;;;;;;;;;;5012338;28;21334;-68
2022/02/18 08:22:44;;;;;;;21.05;3.58;;;;;;;;;;5023332;28;20048;-68
2022/02/18 08:25:10;;;;;;;17.95;2.85;;;;;;;;;;5021243;28;20041;-68
2022/02/18 08:27:37;;;;;;;13.73;3.08;;;;;;;;;;5010532;28;20119;-68
2022/02/18 08:30:04;;;;;;;15.95;3.10;;;;;;;;;;5020496;28;20500;-68
2022/02/18 08:32:31;;;;;;;20.27;3.33;;;;;;;;;;5011178;28;20381;-68
2022/02/18 08:34:58;;;;;;;13.57;3.33;;;;;;;;;;5010731;28;20042;-68
2022/02/18 08:37:24;;;;;;;14.52;3.13;;;;;;;;;;5005562;28;20050;-67
2022/02/18 08:39:51;;;;;;;19.15;3.53;;;;;;;;;;5000361;28;20462;-68
2022/02/18 08:42:17;;;;;;;13.35;2.67;;;;;;;;;;5009336;28;20046;-68
2022/02/18 08:44:44;;;;;;;15.23;2.80;;;;;;;;;;5002503;28;20049;-67
2022/02/18 08:47:10;;;;;;;20.85;3.08;;;;;;;;;;5013555;28;20050;-68
2022/02/18 08:49:40;;;;;;;20.67;3.63;;;;;;;;;;5009455;28;20515;-67
2022/02/18 08:52:06;;;;;;;11.80;2.88;;;;;;;;;;5021552;28;20053;-68
2022/02/18 08:54:33;;;;;;;13.30;3.08;;;;;;;;;;5006971;28;20466;-68
2022/02/18 08:56:59;;;;;;;12.45;3.60;;;;;;;;;;4986734;28;20338;-67
2022/02/18 08:59:25;;;;;;;19.70;3.25;;;;;;;;;;5017504;28;20069;-67
2022/02/18 09:01:52;;;;;;;16.35;3.50;;;;;;;;;;5009939;28;20041;-67
2022/02/18 09:04:18;;;;;;;16.15;3.90;;;;;;;;;;5019052;28;20046;-67
2022/02/18 09:06:45;;;;;;;11.07;3.15;;;;;;;;;;5013147;28;20093;-67
2022/02/18 09:09:11;;;;;;;13.27;3.30;;;;;;;;;;5017553;28;20041;-67
2022/02/18 09:11:38;;;;;;;13.25;2.55;;;;;;;;;;5008314;28;20157;-67
2022/02/18 09:14:04;;;;;;;13.00;3.15;;;;;;;;;;5018552;28;20049;-68
2022/02/18 09:16:30;;;;;;;13.10;2.80;;;;;;;;;;5019167;28;20049;-67
2022/02/18 09:18:57;;;;;;;16.48;3.10;;;;;;;;;;5009100;28;20438;-68
2022/02/18 09:21:23;;;;;;;14.05;3.38;;;;;;;;;;5019359;28;20049;-68
2022/02/18 09:23:58;;;;;;;10.20;2.75;;;;;;;;;;5006137;28;20160;-68
2022/02/18 09:26:26;;;;;;;10.77;2.78;;;;;;;;;;4999917;28;20053;-68
2022/02/18 09:28:53;;;;;;;7.80;2.38;;;;;;;;;;5010009;28;20052;-68
2022/02/18 09:31:20;;;;;;;7.28;2.13;;;;;;;;;;5021242;28;20259;-67
2022/02/18 09:33:47;;;;;;;13.82;3.00;;;;;;;;;;5019107;28;20393;-67
2022/02/18 09:36:14;;;;;;;7.95;2.53;;;;;;;;;;5010749;28;20093;-67
2022/02/18 09:38:41;;;;;;;9.93;2.63;;;;;;;;;;5008909;28;20048;-67
2022/02/18 09:41:09;;;;;;;11.05;3.00;;;;;;;;;;5011858;28;20049;-67
2022/02/18 09:43:36;;;;;;;9.23;2.70;;;;;;;;;;5019308;28;20052;-67
2022/02/18 09:46:03;;;;;;;6.60;2.33;;;;;;;;;;5011290;28;20517;-68
2022/02/18 09:48:29;;;;;;;10.00;2.50;;;;;;;;;;5014494;28;20056;-67
2022/02/18 09:50:56;;;;;;;7.60;2.33;;;;;;;;;;5015425;28;20064;-67
2022/02/18 09:53:25;;;;;;;3.45;1.80;;;;;;;;;;5007353;28;20049;-67
2022/02/18 09:55:51;;;;;;;5.72;2.17;;;;;;;;;;5013525;28;20053;-67
2022/02/18 09:58:23;;;;;;;6.15;2.55;;;;;;;;;;5011067;28;20045;-68
2022/02/18 10:00:50;;;;;;;4.65;2.13;;;;;;;;;;5019569;28;20049;-68
2022/02/18 10:03:17;;;;;;;5.35;2.50;;;;;;;;;;5011132;28;20491;-68
2022/02/18 10:05:43;;;;;;;5.15;2.20;;;;;;;;;;5018324;28;20088;-69
2022/02/18 10:08:14;;;;;;;7.45;2.42;;;;;;;;;;5019862;28;20462;-69
2022/02/18 10:10:41;;;;;;;5.45;2.25;;;;;;;;;;5009053;28;20047;-69
2022/02/18 10:13:28;;;;;;;4.45;2.08;;;;;;;;;;5017700;28;20707;-69
2022/02/18 10:15:56;;;;;;;6.38;2.35;;;;;;;;;;4991932;28;20059;-68
2022/02/18 10:18:22;;;;;;;5.83;2.00;;;;;;;;;;5014161;28;20076;-69
2022/02/18 10:20:49;;;;;;;5.20;2.47;;;;;;;;;;5014966;28;20454;-69
2022/02/18 10:23:20;;;;;;;2.92;1.83;;;;;;;;;;5019741;28;20437;-69
2022/02/18 10:25:47;;;;;;;5.18;2.28;;;;;;;;;;5018938;28;20589;-69
2022/02/18 10:28:14;;;;;;;3.63;1.95;;;;;;;;;;4989867;28;20056;-69
2022/02/18 10:30:42;;;;;;;3.00;2.15;;;;;;;;;;5012879;28;20538;-69
2022/02/18 10:33:10;;;;;;;3.88;1.58;;;;;;;;;;5008516;28;20510;-69
2022/02/18 10:35:37;;;;;;;3.05;2.00;;;;;;;;;;5019976;28;20053;-69
2022/02/18 10:38:04;;;;;;;4.70;1.83;;;;;;;;;;5013652;28;20466;-69
2022/02/18 10:40:31;;;;;;;2.78;1.65;;;;;;;;;;5017193;28;20443;-69
2022/02/18 10:43:09;;;;;;;3.47;2.00;;;;;;;;;;5015192;28;20755;-68
2022/02/18 10:45:35;;;;;;;3.30;1.58;;;;;;;;;;5006425;28;20049;-68
2022/02/18 10:48:06;;;;;;;2.10;1.50;;;;;;;;;;5023436;28;20052;-69
2022/02/18 10:50:32;;;;;;;2.97;1.65;;;;;;;;;;5011716;28;20445;-68
2022/02/18 10:53:08;;;;;;;2.58;1.40;;;;;;;;;;5020613;28;20060;-69
2022/02/18 10:55:49;;;;;;;5.78;1.38;;;;;;;;;;5007768;28;20057;-69
2022/02/18 10:58:23;;;;;;;4.22;1.50;;;;;;;;;;5010811;28;20064;-68
2022/02/18 11:01:02;;;;;;;2.85;1.42;;;;;;;;;;5007907;28;20041;-68
2022/02/18 11:03:28;;;;;;;2.05;1.15;;;;;;;;;;5018415;28;20049;-69
2022/02/18 11:05:55;;;;;;;2.83;1.20;;;;;;;;;;5018676;28;20055;-68
2022/02/18 11:08:28;;;;;;;3.20;1.30;;;;;;;;;;5010309;28;20624;-68
2022/02/18 11:10:55;;;;;;;1.73;1.00;;;;;;;;;;5022642;28;20501;-69
2022/02/18 11:13:22;;;;;;;1.73;1.10;;;;;;;;;;5005759;28;20046;-68
2022/02/18 11:15:49;;;;;;;2.53;1.10;;;;;;;;;;5017381;28;20065;-69
2022/02/18 11:18:16;;;;;;;4.90;1.40;;;;;;;;;;5024007;28;20518;-69
2022/02/18 11:20:44;;;;;;;3.22;1.13;;;;;;;;;;5021223;28;20527;-69
2022/02/18 11:23:10;;;;;;;3.03;1.30;;;;;;;;;;5018213;28;20045;-69
2022/02/18 11:25:36;;;;;;;1.60;1.00;;;;;;;;;;5004114;28;20263;-68
2022/02/18 11:28:05;;;;;;;1.40;1.00;;;;;;;;;;5015429;28;20404;-68
2022/02/18 11:30:35;;;;;;;1.38;0.95;;;;;;;;;;5009861;28;20050;-69
2022/02/18 11:33:04;;;;;;;2.45;0.90;;;;;;;;;;5012747;28;20590;-69
2022/02/18 11:35:40;;;;;;;0.85;0.80;;;;;;;;;;5004273;28;20057;-69
2022/02/18 11:38:25;;;;;;;4.57;1.00;;;;;;;;;;5014584;28;20068;-69
2022/02/18 11:40:54;;;;;;;3.30;1.00;;;;;;;;;;5001733;28;20080;-69
2022/02/18 11:43:22;;;;;;;1.90;1.00;;;;;;;;;;5020402;28;20052;-69
2022/02/18 11:45:59;;;;;;;1.08;0.70;;;;;;;;;;5021088;28;20053;-69
2022/02/18 11:48:35;;;;;;;0.80;0.50;;;;;;;;;;5015792;28;20108;-69
2022/02/18 11:51:12;;;;;;;0.82;0.65;;;;;;;;;;5020098;28;20045;-69
2022/02/18 11:53:38;;;;;;;1.25;0.82;;;;;;;;;;5007507;28;20160;-72
2022/02/18 11:56:05;;;;;;;0.95;0.77;;;;;;;;;;5014611;28;20049;-69
2022/02/18 11:58:47;;;;;;;1.38;0.77;;;;;;;;;;5012953;28;20483;-68
2022/02/18 12:01:13;;;;;;;0.80;0.70;;;;;;;;;;5023023;28;20053;-68
2022/02/18 12:03:39;;;;;;;2.65;0.90;;;;;;;;;;5005359;28;20443;-69
2022/02/18 12:06:10;;;;;;;1.38;0.60;;;;;;;;;;5011816;28;20052;-69
2022/02/18 12:08:37;;;;;;;0.80;0.70;;;;;;;;;;5013272;28;20052;-69
2022/02/18 12:11:30;;;;;;;0.65;0.55;;;;;;;;;;5011454;28;20053;-69
2022/02/18 12:13:57;;;;;;;2.25;1.00;;;;;;;;;;5014109;28;20186;-69
2022/02/18 12:16:24;;;;;;;1.33;0.70;;;;;;;;;;5015708;28;20506;-69
2022/02/18 12:19:04;;;;;;;0.60;0.60;;;;;;;;;;5019402;28;20058;-69
2022/02/18 12:21:30;;;;;;;1.40;0.85;;;;;;;;;;5008432;28;20080;-69
2022/02/18 12:24:19;;;;;;;2.13;0.60;;;;;;;;;;5018660;28;20096;-69
2022/02/18 12:26:45;;;;;;;1.73;0.90;;;;;;;;;;5008457;28;20056;-69
2022/02/18 12:29:14;;;;;;;0.98;0.80;;;;;;;;;;4998224;28;20052;-69
2022/02/18 12:31:50;;;;;;;3.65;0.70;;;;;;;;;;5015572;28;20050;-68
2022/02/18 12:34:30;;;;;;;2.45;0.82;;;;;;;;;;5009116;28;20619;-68
2022/02/18 12:36:56;;;;;;;1.38;0.98;;;;;;;;;;5016866;28;20704;-69
2022/02/18 12:39:36;;;;;;;2.10;0.73;;;;;;;;;;5013911;28;20050;-68
2022/02/18 12:42:09;;;;;;;2.08;1.00;;;;;;;;;;5018295;28;20048;-69
2022/02/18 12:44:43;;;;;;;1.17;0.77;;;;;;;;;;5013869;28;20056;-68
2022/02/18 12:47:09;;;;;;;2.00;0.73;;;;;;;;;;5021632;28;20622;-69
2022/02/18 12:49:40;;;;;;;1.50;0.80;;;;;;;;;;5009852;28;20049;-68
2022/02/18 12:52:07;;;;;;;1.77;0.80;;;;;;;;;;5010979;28;20056;-68
2022/02/18 12:54:48;;;;;;;0.90;0.80;;;;;;;;;;5001195;28;20868;-68
2022/02/18 12:57:16;;;;;;;1.40;0.95;;;;;;;;;;5011136;28;20111;-69
2022/02/18 12:59:43;;;;;;;1.10;1.00;;;;;;;;;;5011462;28;20053;-69
2022/02/18 13:02:09;;;;;;;2.03;1.00;;;;;;;;;;5007030;28;20158;-69
2022/02/18 13:04:37;;;;;;;3.10;1.10;;;;;;;;;;5018219;28;20403;-68
2022/02/18 13:07:05;;;;;;;3.45;0.95;;;;;;;;;;5021653;28;20493;-68
2022/02/18 13:09:32;;;;;;;2.75;1.05;;;;;;;;;;5017008;28;20053;-68
2022/02/18 13:11:59;;;;;;;1.67;1.00;;;;;;;;;;5020151;28;20500;-69
2022/02/18 13:14:25;;;;;;;3.67;1.10;;;;;;;;;;5010918;28;20735;-68
2022/02/18 13:16:52;;;;;;;4.07;1.30;;;;;;;;;;4998245;28;20050;-68
2022/02/18 13:19:18;;;;;;;5.63;1.80;;;;;;;;;;5009988;28;20132;-68
2022/02/18 13:21:44;;;;;;;1.23;0.77;;;;;;;;;;5020631;28;20059;-69
2022/02/18 13:24:11;;;;;;;4.43;0.93;;;;;;;;;;5022443;28;20541;-69
2022/02/18 13:26:38;;;;;;;4.97;0.82;;;;;;;;;;5012066;28;20053;-69
2022/02/18 13:29:04;;;;;;;5.85;1.13;;;;;;;;;;5019188;28;20051;-68
2022/02/18 13:31:50;;;;;;;8.40;1.00;;;;;;;;;;5006573;28;20485;-67
2022/02/18 13:34:17;;;;;;;5.10;0.90;;;;;;;;;;5021049;28;20061;-68
2022/02/18 13:36:43;;;;;;;10.70;1.50;;;;;;;;;;5012702;28;20054;-69
2022/02/18 13:39:13;;;;;;;5.35;1.00;;;;;;;;;;5019597;28;20056;-68
2022/02/18 13:41:41;;;;;;;5.68;1.17;;;;;;;;;;5010951;28;20822;-69
2022/02/18 13:44:11;;;;;;;4.27;1.40;;;;;;;;;;5012852;28;20057;-68
2022/02/18 13:46:38;;;;;;;4.93;0.80;;;;;;;;;;5015982;28;20306;-68
2022/02/18 13:49:06;;;;;;;5.00;0.67;;;;;;;;;;5006191;28;21628;-68
2022/02/18 13:51:34;;;;;;;3.63;1.00;;;;;;;;;;5020532;28;20498;-69
2022/02/18 13:54:00;;;;;;;3.22;0.85;;;;;;;;;;5011364;28;20071;-69
2022/02/18 13:56:27;;;;;;;4.53;1.10;;;;;;;;;;5013924;28;20057;-68
2022/02/18 13:59:13;;;;;;;5.72;1.30;;;;;;;;;;5007075;28;20392;-68
2022/02/18 14:01:40;;;;;;;8.95;1.77;;;;;;;;;;5018117;28;20057;-68
2022/02/18 14:04:14;;;;;;;4.22;1.05;;;;;;;;;;5019917;28;20049;-68
2022/02/18 14:06:41;;;;;;;8.50;1.50;;;;;;;;;;5011568;28;20053;-68
2022/02/18 14:09:07;;;;;;;7.00;1.10;;;;;;;;;;5018952;28;20053;-70
2022/02/18 14:11:33;;;;;;;11.02;1.27;;;;;;;;;;5007827;28;20049;-68
2022/02/18 14:14:16;;;;;;;8.07;1.17;;;;;;;;;;5015792;28;20399;-68
2022/02/18 14:16:53;;;;;;;5.53;1.17;;;;;;;;;;5007895;28;20052;-71
2022/02/18 14:19:20;;;;;;;7.82;1.17;;;;;;;;;;5020278;28;20053;-70
2022/02/18 14:21:56;;;;;;;5.05;1.23;;;;;;;;;;5016510;28;20241;-70
2022/02/18 14:24:30;;;;;;;10.07;1.45;;;;;;;;;;5016942;28;20056;-68
2022/02/18 14:26:57;;;;;;;5.72;1.42;;;;;;;;;;5014395;28;20483;-68
2022/02/18 14:29:23;;;;;;;11.50;1.55;;;;;;;;;;5012796;28;20046;-69
2022/02/18 14:31:53;;;;;;;8.85;1.60;;;;;;;;;;5019318;28;20060;-67
2022/02/18 14:34:19;;;;;;;10.68;1.92;;;;;;;;;;5008784;28;20053;-67
2022/02/18 14:36:47;;;;;;;16.88;2.35;;;;;;;;;;5020208;28;20084;-67